sensor_id;sensor_type;location;lat;lon;timestamp;pressure;altitude;pressure_sealevel;temperature;humidity
11329;BME280;5719;42.714;23.732;2024-03-08T00:00:05;94452.44;;;5.23;100.00
11329;BME280;5719;42.714;23.732;2024-03-08T00:02:37;94449.50;;;5.31;100.00
11329;BME280;5719;42.714;23.732;2024-03-08T00:05:05;94443.13;;;5.38;100.00
11329;BME280;5719;42.714;23.732;2024-03-08T00:07:34;94441.41;;;5.38;100.00
11329;BME280;5719;42.714;23.732;2024-03-08T00:10:01;94435.50;;;5.36;100.00
11329;BME280;5719;42.714;23.732;2024-03-08T00:12:29;94436.34;;;5.37;100.00
11329;BME280;5719;42.714;23.732;2024-03-08T00:14:56;94438.50;;;5.44;100.00
11329;BME280;5719;42.714;23.732;2024-03-08T00:17:24;94425.75;;;5.43;100.00
11329;BME280;5719;42.714;23.732;2024-03-08T00:19:51;94436.53;;;5.50;100.00
11329;BME280;5719;42.714;23.732;2024-03-08T00:22:17;94436.53;;;5.50;100.00
11329;BME280;5719;42.714;23.732;2024-03-08T00:24:44;94429.56;;;5.52;100.00
11329;BME280;5719;42.714;23.732;2024-03-08T00:27:11;94432.53;;;5.44;100.00
11329;BME280;5719;42.714;23.732;2024-03-08T00:29:39;94428.97;;;5.47;100.00
11329;BME280;5719;42.714;23.732;2024-03-08T00:32:06;94410.31;;;5.44;100.00
11329;BME280;5719;42.714;23.732;2024-03-08T00:34:35;94423.97;;;5.45;100.00
11329;BME280;5719;42.714;23.732;2024-03-08T00:37:03;94419.00;;;5.42;100.00
11329;BME280;5719;42.714;23.732;2024-03-08T00:39:29;94417.00;;;5.47;100.00
11329;BME280;5719;42.714;23.732;2024-03-08T00:41:56;94371.00;;;5.28;100.00
11329;BME280;5719;42.714;23.732;2024-03-08T00:44:23;94406.44;;;5.53;100.00
11329;BME280;5719;42.714;23.732;2024-03-08T00:46:51;94409.91;;;5.52;100.00
11329;BME280;5719;42.714;23.732;2024-03-08T00:49:18;94411.56;;;5.53;100.00
11329;BME280;5719;42.714;23.732;2024-03-08T00:51:45;94408.41;;;5.48;100.00
11329;BME280;5719;42.714;23.732;2024-03-08T00:54:12;94402.53;;;5.46;100.00
11329;BME280;5719;42.714;23.732;2024-03-08T00:56:38;94399.97;;;5.46;100.00
11329;BME280;5719;42.714;23.732;2024-03-08T00:59:06;94401.44;;;5.50;100.00
11329;BME280;5719;42.714;23.732;2024-03-08T01:01:33;94396.19;;;5.53;100.00
11329;BME280;5719;42.714;23.732;2024-03-08T01:04:02;94393.63;;;5.53;100.00
11329;BME280;5719;42.714;23.732;2024-03-08T01:06:28;94382.78;;;5.48;100.00
11329;BME280;5719;42.714;23.732;2024-03-08T01:08:55;94382.94;;;5.45;100.00
11329;BME280;5719;42.714;23.732;2024-03-08T01:11:22;94385.00;;;5.38;100.00
11329;BME280;5719;42.714;23.732;2024-03-08T01:13:49;94382.09;;;5.44;100.00
11329;BME280;5719;42.714;23.732;2024-03-08T01:16:16;94383.00;;;5.43;100.00
11329;BME280;5719;42.714;23.732;2024-03-08T01:18:45;94388.91;;;5.46;100.00
11329;BME280;5719;42.714;23.732;2024-03-08T01:21:13;94382.78;;;5.48;100.00
11329;BME280;5719;42.714;23.732;2024-03-08T01:23:40;94384.19;;;5.54;100.00
11329;BME280;5719;42.714;23.732;2024-03-08T01:26:07;94385.59;;;5.59;100.00
11329;BME280;5719;42.714;23.732;2024-03-08T01:28:34;94386.97;;;5.65;100.00
11329;BME280;5719;42.714;23.732;2024-03-08T01:31:01;94386.00;;;5.67;100.00
11329;BME280;5719;42.714;23.732;2024-03-08T01:33:28;94376.47;;;5.69;100.00
11329;BME280;5719;42.714;23.732;2024-03-08T01:35:58;94382.34;;;5.71;100.00
11329;BME280;5719;42.714;23.732;2024-03-08T01:38:26;94377.13;;;5.73;100.00
11329;BME280;5719;42.714;23.732;2024-03-08T01:40:53;94382.09;;;5.76;100.00
11329;BME280;5719;42.714;23.732;2024-03-08T01:43:20;94380.34;;;5.76;100.00
11329;BME280;5719;42.714;23.732;2024-03-08T01:45:47;94373.66;;;5.74;100.00
11329;BME280;5719;42.714;23.732;2024-03-08T01:48:14;94379.78;;;5.71;100.00
11329;BME280;5719;42.714;23.732;2024-03-08T01:50:42;94371.50;;;5.66;100.00
11329;BME280;5719;42.714;23.732;2024-03-08T01:53:09;94376.81;;;5.63;100.00
11329;BME280;5719;42.714;23.732;2024-03-08T01:55:39;94376.16;;;5.60;100.00
11329;BME280;5719;42.714;23.732;2024-03-08T01:58:06;94383.09;;;5.58;100.00
11329;BME280;5719;42.714;23.732;2024-03-08T02:00:34;94375.31;;;5.59;100.00
11329;BME280;5719;42.714;23.732;2024-03-08T02:03:02;94366.72;;;5.60;100.00
11329;BME280;5719;42.714;23.732;2024-03-08T02:05:29;94366.38;;;5.51;100.00
11329;BME280;5719;42.714;23.732;2024-03-08T02:07:56;94375.06;;;5.48;100.00
11329;BME280;5719;42.714;23.732;2024-03-08T02:10:23;94370.13;;;5.45;100.00
11329;BME280;5719;42.714;23.732;2024-03-08T02:12:51;94370.03;;;5.47;100.00
11329;BME280;5719;42.714;23.732;2024-03-08T02:15:18;94374.91;;;5.51;100.00
11329;BME280;5719;42.714;23.732;2024-03-08T02:17:45;94375.66;;;5.53;100.00
11329;BME280;5719;42.714;23.732;2024-03-08T02:20:12;94373.25;;;5.50;100.00
11329;BME280;5719;42.714;23.732;2024-03-08T02:22:41;94370.84;;;5.47;100.00
11329;BME280;5719;42.714;23.732;2024-03-08T02:25:10;94374.91;;;5.51;100.00
11329;BME280;5719;42.714;23.732;2024-03-08T02:27:37;94357.97;;;5.49;100.00
11329;BME280;5719;42.714;23.732;2024-03-08T02:30:05;94376.31;;;5.57;100.00
11329;BME280;5719;42.714;23.732;2024-03-08T02:32:32;94362.44;;;5.45;100.00
11329;BME280;5719;42.714;23.732;2024-03-08T02:34:59;94379.59;;;5.43;100.00
11329;BME280;5719;42.714;23.732;2024-03-08T02:37:26;94380.28;;;5.31;100.00
11329;BME280;5719;42.714;23.732;2024-03-08T02:39:55;94378.38;;;5.19;100.00
11329;BME280;5719;42.714;23.732;2024-03-08T02:42:22;94381.88;;;5.01;100.00
11329;BME280;5719;42.714;23.732;2024-03-08T02:44:49;94383.72;;;4.99;100.00
11329;BME280;5719;42.714;23.732;2024-03-08T02:47:16;94373.41;;;4.83;100.00
11329;BME280;5719;42.714;23.732;2024-03-08T02:49:43;94387.41;;;4.93;100.00
11329;BME280;5719;42.714;23.732;2024-03-08T02:52:09;94389.72;;;4.98;100.00
11329;BME280;5719;42.714;23.732;2024-03-08T02:54:36;94391.78;;;4.91;100.00
11329;BME280;5719;42.714;23.732;2024-03-08T02:57:04;94387.72;;;4.87;100.00
11329;BME280;5719;42.714;23.732;2024-03-08T02:59:32;94396.53;;;4.81;100.00
11329;BME280;5719;42.714;23.732;2024-03-08T03:01:59;94393.69;;;4.70;100.00
11329;BME280;5719;42.714;23.732;2024-03-08T03:04:27;94394.50;;;4.55;100.00
11329;BME280;5719;42.714;23.732;2024-03-08T03:06:54;94403.59;;;4.43;100.00
11329;BME280;5719;42.714;23.732;2024-03-08T03:09:20;94403.34;;;4.31;100.00
11329;BME280;5719;42.714;23.732;2024-03-08T03:11:53;94409.69;;;4.24;100.00
11329;BME280;5719;42.714;23.732;2024-03-08T03:14:21;94399.97;;;4.13;100.00
11329;BME280;5719;42.714;23.732;2024-03-08T03:16:48;94394.31;;;4.07;100.00
11329;BME280;5719;42.714;23.732;2024-03-08T03:19:15;94404.09;;;3.99;100.00
11329;BME280;5719;42.714;23.732;2024-03-08T03:21:42;94408.97;;;3.86;100.00
11329;BME280;5719;42.714;23.732;2024-03-08T03:24:09;94415.34;;;3.77;100.00
11329;BME280;5719;42.714;23.732;2024-03-08T03:26:36;94411.66;;;3.83;100.00
11329;BME280;5719;42.714;23.732;2024-03-08T03:29:04;94408.84;;;3.70;100.00
11329;BME280;5719;42.714;23.732;2024-03-08T03:31:35;94409.53;;;3.74;100.00
11329;BME280;5719;42.714;23.732;2024-03-08T03:34:03;94417.94;;;3.76;100.00
11329;BME280;5719;42.714;23.732;2024-03-08T03:36:30;94420.53;;;3.57;100.00
11329;BME280;5719;42.714;23.732;2024-03-08T03:38:57;94416.88;;;3.44;100.00
11329;BME280;5719;42.714;23.732;2024-03-08T03:41:32;94418.06;;;3.37;100.00
11329;BME280;5719;42.714;23.732;2024-03-08T03:43:59;94414.53;;;3.21;100.00
11329;BME280;5719;42.714;23.732;2024-03-08T03:46:26;94416.13;;;3.05;100.00
11329;BME280;5719;42.714;23.732;2024-03-08T03:48:55;94425.84;;;3.15;100.00
11329;BME280;5719;42.714;23.732;2024-03-08T03:51:21;94437.16;;;3.10;100.00
11329;BME280;5719;42.714;23.732;2024-03-08T03:53:48;94436.69;;;3.02;100.00
11329;BME280;5719;42.714;23.732;2024-03-08T03:56:15;94437.72;;;2.97;100.00
11329;BME280;5719;42.714;23.732;2024-03-08T03:58:42;94425.59;;;2.82;100.00
11329;BME280;5719;42.714;23.732;2024-03-08T04:01:09;94445.13;;;2.83;100.00
11329;BME280;5719;42.714;23.732;2024-03-08T04:03:36;94446.22;;;2.78;100.00
11329;BME280;5719;42.714;23.732;2024-03-08T04:06:04;94444.63;;;2.75;100.00
11329;BME280;5719;42.714;23.732;2024-03-08T04:08:31;94459.06;;;2.76;100.00
11329;BME280;5719;42.714;23.732;2024-03-08T04:11:00;94448.44;;;2.85;100.00
11329;BME280;5719;42.714;23.732;2024-03-08T04:13:27;94445.28;;;2.80;100.00
11329;BME280;5719;42.714;23.732;2024-03-08T04:15:54;94449.22;;;2.87;100.00
11329;BME280;5719;42.714;23.732;2024-03-08T04:18:21;94454.38;;;2.86;100.00
11329;BME280;5719;42.714;23.732;2024-03-08T04:20:48;94464.53;;;2.87;100.00
11329;BME280;5719;42.714;23.732;2024-03-08T04:23:16;94450.25;;;2.83;100.00
11329;BME280;5719;42.714;23.732;2024-03-08T04:25:44;94456.88;;;2.87;100.00
11329;BME280;5719;42.714;23.732;2024-03-08T04:28:11;94471.78;;;2.96;100.00
11329;BME280;5719;42.714;23.732;2024-03-08T04:30:38;94457.34;;;2.95;100.00
11329;BME280;5719;42.714;23.732;2024-03-08T04:33:05;94466.81;;;2.93;100.00
11329;BME280;5719;42.714;23.732;2024-03-08T04:35:33;94468.91;;;3.04;100.00
11329;BME280;5719;42.714;23.732;2024-03-08T04:38:00;94474.06;;;3.03;100.00
11329;BME280;5719;42.714;23.732;2024-03-08T04:40:28;94472.28;;;3.05;100.00
11329;BME280;5719;42.714;23.732;2024-03-08T04:42:56;94477.31;;;3.06;100.00
11329;BME280;5719;42.714;23.732;2024-03-08T04:45:24;94479.53;;;3.14;100.00
11329;BME280;5719;42.714;23.732;2024-03-08T04:47:51;94474.56;;;3.11;100.00
11329;BME280;5719;42.714;23.732;2024-03-08T04:50:18;94467.56;;;3.16;100.00
11329;BME280;5719;42.714;23.732;2024-03-08T04:52:45;94479.75;;;3.09;100.00
11329;BME280;5719;42.714;23.732;2024-03-08T04:55:11;94473.63;;;3.13;100.00
11329;BME280;5719;42.714;23.732;2024-03-08T04:57:40;94483.56;;;3.19;100.00
11329;BME280;5719;42.714;23.732;2024-03-08T05:00:08;94489.66;;;3.17;100.00
11329;BME280;5719;42.714;23.732;2024-03-08T05:02:36;94490.53;;;3.16;100.00
11329;BME280;5719;42.714;23.732;2024-03-08T05:05:04;94491.84;;;3.24;100.00
11329;BME280;5719;42.714;23.732;2024-03-08T05:07:32;94497.94;;;3.22;100.00
11329;BME280;5719;42.714;23.732;2024-03-08T05:09:59;94492.44;;;3.31;100.00
11329;BME280;5719;42.714;23.732;2024-03-08T05:12:27;94500.09;;;3.31;100.00
11329;BME280;5719;42.714;23.732;2024-03-08T05:14:55;94495.59;;;3.36;100.00
11329;BME280;5719;42.714;23.732;2024-03-08T05:17:22;94497.97;;;3.40;100.00
11329;BME280;5719;42.714;23.732;2024-03-08T05:19:50;94499.75;;;3.38;100.00
11329;BME280;5719;42.714;23.732;2024-03-08T05:22:17;94489.94;;;3.29;100.00
11329;BME280;5719;42.714;23.732;2024-03-08T05:24:44;94504.78;;;3.40;100.00
11329;BME280;5719;42.714;23.732;2024-03-08T05:27:11;94500.78;;;3.34;100.00
11329;BME280;5719;42.714;23.732;2024-03-08T05:29:38;94512.25;;;3.44;100.00
11329;BME280;5719;42.714;23.732;2024-03-08T05:32:07;94519.03;;;3.45;100.00
11329;BME280;5719;42.714;23.732;2024-03-08T05:34:35;94523.22;;;3.46;100.00
11329;BME280;5719;42.714;23.732;2024-03-08T05:37:01;94518.97;;;3.47;100.00
11329;BME280;5719;42.714;23.732;2024-03-08T05:39:28;94523.31;;;3.45;100.00
11329;BME280;5719;42.714;23.732;2024-03-08T05:41:55;94520.69;;;3.46;100.00
11329;BME280;5719;42.714;23.732;2024-03-08T05:44:22;94525.38;;;3.37;100.00
11329;BME280;5719;42.714;23.732;2024-03-08T05:46:49;94521.66;;;3.44;100.00
11329;BME280;5719;42.714;23.732;2024-03-08T05:49:17;94508.31;;;3.37;100.00
11329;BME280;5719;42.714;23.732;2024-03-08T05:51:44;94517.19;;;3.68;100.00
11329;BME280;5719;42.714;23.732;2024-03-08T05:54:13;94528.81;;;3.75;100.00
11329;BME280;5719;42.714;23.732;2024-03-08T05:56:40;94525.28;;;3.77;100.00
11329;BME280;5719;42.714;23.732;2024-03-08T05:59:07;94526.59;;;3.67;100.00
11329;BME280;5719;42.714;23.732;2024-03-08T06:01:34;94521.81;;;3.78;100.00
11329;BME280;5719;42.714;23.732;2024-03-08T06:04:03;94542.47;;;3.92;100.00
11329;BME280;5719;42.714;23.732;2024-03-08T06:06:31;94524.94;;;3.85;100.00
11329;BME280;5719;42.714;23.732;2024-03-08T06:08:58;94551.53;;;4.00;100.00
11329;BME280;5719;42.714;23.732;2024-03-08T06:11:25;94552.63;;;4.13;100.00
11329;BME280;5719;42.714;23.732;2024-03-08T06:13:53;94542.06;;;4.02;100.00
11329;BME280;5719;42.714;23.732;2024-03-08T06:16:25;94552.81;;;4.08;100.00
11329;BME280;5719;42.714;23.732;2024-03-08T06:18:55;94555.38;;;4.08;100.00
11329;BME280;5719;42.714;23.732;2024-03-08T06:21:22;94561.75;;;4.18;100.00
11329;BME280;5719;42.714;23.732;2024-03-08T06:23:53;94557.78;;;4.30;100.00
11329;BME280;5719;42.714;23.732;2024-03-08T06:26:22;94567.91;;;4.33;100.00
11329;BME280;5719;42.714;23.732;2024-03-08T06:28:50;94556.97;;;4.29;100.00
11329;BME280;5719;42.714;23.732;2024-03-08T06:31:17;94566.38;;;4.29;100.00
11329;BME280;5719;42.714;23.732;2024-03-08T06:33:45;94570.81;;;4.25;100.00
11329;BME280;5719;42.714;23.732;2024-03-08T06:36:12;94571.31;;;4.15;100.00
11329;BME280;5719;42.714;23.732;2024-03-08T06:38:38;94580.50;;;4.19;100.00
11329;BME280;5719;42.714;23.732;2024-03-08T06:41:09;94580.06;;;4.28;100.00
11329;BME280;5719;42.714;23.732;2024-03-08T06:43:40;94575.44;;;4.36;100.00
11329;BME280;5719;42.714;23.732;2024-03-08T06:46:07;94574.78;;;4.50;100.00
11329;BME280;5719;42.714;23.732;2024-03-08T06:48:34;94556.66;;;4.54;100.00
11329;BME280;5719;42.714;23.732;2024-03-08T06:51:03;94577.16;;;4.71;100.00
11329;BME280;5719;42.714;23.732;2024-03-08T06:53:29;94574.00;;;4.83;100.00
11329;BME280;5719;42.714;23.732;2024-03-08T06:55:56;94588.66;;;4.99;100.00
11329;BME280;5719;42.714;23.732;2024-03-08T06:58:25;94564.81;;;4.97;100.00
11329;BME280;5719;42.714;23.732;2024-03-08T07:00:53;94578.47;;;5.14;100.00
11329;BME280;5719;42.714;23.732;2024-03-08T07:03:23;94576.88;;;5.29;100.00
11329;BME280;5719;42.714;23.732;2024-03-08T07:05:52;94570.16;;;5.26;100.00
11329;BME280;5719;42.714;23.732;2024-03-08T07:08:19;94577.94;;;5.42;99.93
11329;BME280;5719;42.714;23.732;2024-03-08T07:10:47;94574.97;;;5.50;98.97
11329;BME280;5719;42.714;23.732;2024-03-08T07:13:14;94586.81;;;5.52;98.16
11329;BME280;5719;42.714;23.732;2024-03-08T07:15:43;94590.41;;;5.65;98.52
11329;BME280;5719;42.714;23.732;2024-03-08T07:18:11;94588.44;;;5.70;98.20
11329;BME280;5719;42.714;23.732;2024-03-08T07:20:40;94591.94;;;5.85;98.57
11329;BME280;5719;42.714;23.732;2024-03-08T07:23:07;94591.84;;;6.04;98.83
11329;BME280;5719;42.714;23.732;2024-03-08T07:25:34;94583.09;;;6.23;96.07
11329;BME280;5719;42.714;23.732;2024-03-08T07:28:00;94591.47;;;6.43;96.05
11329;BME280;5719;42.714;23.732;2024-03-08T07:30:27;94586.50;;;6.55;94.60
11329;BME280;5719;42.714;23.732;2024-03-08T07:33:24;94584.59;;;6.43;93.53
11329;BME280;5719;42.714;23.732;2024-03-08T07:35:52;94593.38;;;6.39;91.07
11329;BME280;5719;42.714;23.732;2024-03-08T07:38:19;94573.72;;;6.38;90.49
11329;BME280;5719;42.714;23.732;2024-03-08T07:40:47;94584.25;;;6.65;91.83
11329;BME280;5719;42.714;23.732;2024-03-08T07:43:14;94585.75;;;6.53;88.51
11329;BME280;5719;42.714;23.732;2024-03-08T07:45:40;94584.06;;;6.52;89.93
11329;BME280;5719;42.714;23.732;2024-03-08T07:48:07;94589.38;;;6.65;90.73
11329;BME280;5719;42.714;23.732;2024-03-08T07:50:37;94587.72;;;6.79;89.86
11329;BME280;5719;42.714;23.732;2024-03-08T07:53:04;94585.84;;;6.97;90.30
11329;BME280;5719;42.714;23.732;2024-03-08T07:55:32;94591.69;;;7.15;88.19
11329;BME280;5719;42.714;23.732;2024-03-08T07:58:00;94586.13;;;7.22;86.97
11329;BME280;5719;42.714;23.732;2024-03-08T08:00:28;94589.34;;;7.26;85.02
11329;BME280;5719;42.714;23.732;2024-03-08T08:02:56;94580.94;;;7.38;83.47
11329;BME280;5719;42.714;23.732;2024-03-08T08:05:23;94575.81;;;7.66;85.54
11329;BME280;5719;42.714;23.732;2024-03-08T08:07:51;94567.56;;;7.89;83.56
11329;BME280;5719;42.714;23.732;2024-03-08T08:10:18;94577.22;;;7.86;81.98
11329;BME280;5719;42.714;23.732;2024-03-08T08:12:47;94577.75;;;8.05;84.43
11329;BME280;5719;42.714;23.732;2024-03-08T08:15:14;94574.16;;;8.22;83.89
11329;BME280;5719;42.714;23.732;2024-03-08T08:17:41;94576.91;;;8.47;79.97
11329;BME280;5719;42.714;23.732;2024-03-08T08:20:09;94553.44;;;8.78;80.48
11329;BME280;5719;42.714;23.732;2024-03-08T08:22:37;94572.88;;;8.97;78.77
11329;BME280;5719;42.714;23.732;2024-03-08T08:25:06;94579.97;;;9.20;80.35
11329;BME280;5719;42.714;23.732;2024-03-08T08:27:33;94576.66;;;9.57;73.72
11329;BME280;5719;42.714;23.732;2024-03-08T08:30:02;94572.81;;;9.88;71.35
11329;BME280;5719;42.714;23.732;2024-03-08T08:32:33;94570.97;;;9.77;73.93
11329;BME280;5719;42.714;23.732;2024-03-08T08:35:00;94572.94;;;9.87;73.14
11329;BME280;5719;42.714;23.732;2024-03-08T08:37:27;94576.97;;;9.91;70.49
11329;BME280;5719;42.714;23.732;2024-03-08T08:39:54;94580.06;;;10.08;70.92
11329;BME280;5719;42.714;23.732;2024-03-08T08:42:22;94573.31;;;10.06;65.46
11329;BME280;5719;42.714;23.732;2024-03-08T08:44:49;94581.63;;;9.85;67.07
11329;BME280;5719;42.714;23.732;2024-03-08T08:47:16;94596.31;;;9.33;71.70
11329;BME280;5719;42.714;23.732;2024-03-08T08:49:44;94580.25;;;9.03;73.30
11329;BME280;5719;42.714;23.732;2024-03-08T08:52:12;94576.41;;;8.96;77.24
11329;BME280;5719;42.714;23.732;2024-03-08T08:54:38;94579.63;;;8.72;73.60
11329;BME280;5719;42.714;23.732;2024-03-08T08:57:05;94568.78;;;8.53;77.89
11329;BME280;5719;42.714;23.732;2024-03-08T08:59:34;94546.56;;;8.38;77.02
11329;BME280;5719;42.714;23.732;2024-03-08T09:02:01;94563.13;;;8.48;75.81
11329;BME280;5719;42.714;23.732;2024-03-08T09:04:29;94564.44;;;8.41;74.07
11329;BME280;5719;42.714;23.732;2024-03-08T09:06:56;94577.47;;;8.24;77.36
11329;BME280;5719;42.714;23.732;2024-03-08T09:09:23;94580.44;;;8.04;75.14
11329;BME280;5719;42.714;23.732;2024-03-08T09:11:51;94577.88;;;7.89;77.44
11329;BME280;5719;42.714;23.732;2024-03-08T09:14:18;94577.41;;;7.83;79.11
11329;BME280;5719;42.714;23.732;2024-03-08T09:16:47;94580.06;;;7.81;79.48
11329;BME280;5719;42.714;23.732;2024-03-08T09:19:14;94578.84;;;7.73;79.50
11329;BME280;5719;42.714;23.732;2024-03-08T09:21:40;94579.41;;;7.64;80.98
11329;BME280;5719;42.714;23.732;2024-03-08T09:24:07;94575.63;;;7.69;78.78
11329;BME280;5719;42.714;23.732;2024-03-08T09:26:34;94573.25;;;7.66;77.44
11329;BME280;5719;42.714;23.732;2024-03-08T09:29:01;94578.00;;;7.44;79.68
11329;BME280;5719;42.714;23.732;2024-03-08T09:31:28;94580.88;;;7.68;82.30
11329;BME280;5719;42.714;23.732;2024-03-08T09:33:56;94584.00;;;7.87;80.47
11329;BME280;5719;42.714;23.732;2024-03-08T09:36:22;94584.94;;;8.14;80.38
11329;BME280;5719;42.714;23.732;2024-03-08T09:38:50;94572.16;;;8.41;78.72
11329;BME280;5719;42.714;23.732;2024-03-08T09:41:18;94570.69;;;8.64;77.28
11329;BME280;5719;42.714;23.732;2024-03-08T09:43:46;94582.91;;;8.74;74.48
11329;BME280;5719;42.714;23.732;2024-03-08T09:46:14;94539.09;;;8.74;72.74
11329;BME280;5719;42.714;23.732;2024-03-08T09:48:41;94575.16;;;8.89;72.90
11329;BME280;5719;42.714;23.732;2024-03-08T09:51:09;94558.50;;;8.80;72.43
11329;BME280;5719;42.714;23.732;2024-03-08T09:53:40;94565.22;;;8.56;73.99
11329;BME280;5719;42.714;23.732;2024-03-08T09:56:08;94558.25;;;8.44;72.37
11329;BME280;5719;42.714;23.732;2024-03-08T09:58:35;94568.75;;;8.26;73.01
11329;BME280;5719;42.714;23.732;2024-03-08T10:01:20;94562.41;;;8.04;75.02
11329;BME280;5719;42.714;23.732;2024-03-08T10:03:47;94580.16;;;8.22;75.01
11329;BME280;5719;42.714;23.732;2024-03-08T10:06:16;94583.91;;;8.31;73.52
11329;BME280;5719;42.714;23.732;2024-03-08T10:08:43;94578.50;;;8.21;76.09
11329;BME280;5719;42.714;23.732;2024-03-08T10:11:10;94564.53;;;8.11;74.10
11329;BME280;5719;42.714;23.732;2024-03-08T10:13:38;94579.31;;;8.22;75.88
11329;BME280;5719;42.714;23.732;2024-03-08T10:16:06;94568.84;;;8.11;74.81
11329;BME280;5719;42.714;23.732;2024-03-08T10:18:34;94575.84;;;8.23;75.90
11329;BME280;5719;42.714;23.732;2024-03-08T10:21:05;94577.22;;;8.14;75.35
11329;BME280;5719;42.714;23.732;2024-03-08T10:23:33;94564.91;;;8.33;76.88
11329;BME280;5719;42.714;23.732;2024-03-08T10:26:10;94533.16;;;8.86;78.34
11329;BME280;5719;42.714;23.732;2024-03-08T10:28:40;94565.59;;;9.68;74.30
11329;BME280;5719;42.714;23.732;2024-03-08T10:31:07;94563.09;;;10.29;70.97
11329;BME280;5719;42.714;23.732;2024-03-08T10:33:34;94564.50;;;10.46;69.18
11329;BME280;5719;42.714;23.732;2024-03-08T10:36:04;94559.59;;;10.18;68.04
11329;BME280;5719;42.714;23.732;2024-03-08T10:38:33;94546.59;;;9.94;66.47
11329;BME280;5719;42.714;23.732;2024-03-08T10:41:03;94560.22;;;9.71;66.86
11329;BME280;5719;42.714;23.732;2024-03-08T10:43:38;94564.34;;;9.48;67.87
11329;BME280;5719;42.714;23.732;2024-03-08T10:46:16;94563.38;;;9.24;68.03
11329;BME280;5719;42.714;23.732;2024-03-08T10:48:49;94554.84;;;8.97;68.75
11329;BME280;5719;42.714;23.732;2024-03-08T10:51:16;94542.56;;;8.88;72.66
11329;BME280;5719;42.714;23.732;2024-03-08T10:53:46;94560.69;;;8.86;72.47
11329;BME280;5719;42.714;23.732;2024-03-08T10:56:14;94558.38;;;8.96;75.10
11329;BME280;5719;42.714;23.732;2024-03-08T10:58:42;94552.72;;;9.03;71.07
11329;BME280;5719;42.714;23.732;2024-03-08T11:01:10;94553.06;;;8.84;70.55
11329;BME280;5719;42.714;23.732;2024-03-08T11:03:44;94546.97;;;8.85;71.36
11329;BME280;5719;42.714;23.732;2024-03-08T11:06:15;94544.00;;;8.92;73.15
11329;BME280;5719;42.714;23.732;2024-03-08T11:08:42;94552.66;;;8.91;71.29
11329;BME280;5719;42.714;23.732;2024-03-08T11:11:26;94545.75;;;8.91;74.32
11329;BME280;5719;42.714;23.732;2024-03-08T11:14:00;94540.56;;;8.78;73.23
11329;BME280;5719;42.714;23.732;2024-03-08T11:16:38;94547.72;;;9.00;71.00
11329;BME280;5719;42.714;23.732;2024-03-08T11:19:23;94545.78;;;9.04;71.44
11329;BME280;5719;42.714;23.732;2024-03-08T11:22:00;94550.06;;;9.30;72.03
11329;BME280;5719;42.714;23.732;2024-03-08T11:24:28;94553.63;;;9.79;70.79
11329;BME280;5719;42.714;23.732;2024-03-08T11:27:06;94527.44;;;10.09;68.24
11329;BME280;5719;42.714;23.732;2024-03-08T11:29:38;94539.31;;;10.37;65.25
11329;BME280;5719;42.714;23.732;2024-03-08T11:32:10;94523.00;;;10.24;64.69
11329;BME280;5719;42.714;23.732;2024-03-08T11:34:38;94542.22;;;10.32;66.01
11329;BME280;5719;42.714;23.732;2024-03-08T11:37:11;94544.94;;;10.18;62.61
11329;BME280;5719;42.714;23.732;2024-03-08T11:39:39;94536.06;;;9.84;65.97
11329;BME280;5719;42.714;23.732;2024-03-08T11:42:08;94534.50;;;9.95;66.52
11329;BME280;5719;42.714;23.732;2024-03-08T11:44:36;94534.59;;;10.06;67.41
11329;BME280;5719;42.714;23.732;2024-03-08T11:47:08;94528.84;;;10.51;65.41
11329;BME280;5719;42.714;23.732;2024-03-08T11:49:35;94524.59;;;10.98;64.70
11329;BME280;5719;42.714;23.732;2024-03-08T11:52:02;94527.56;;;11.04;60.14
11329;BME280;5719;42.714;23.732;2024-03-08T11:54:29;94529.59;;;11.12;60.60
11329;BME280;5719;42.714;23.732;2024-03-08T11:56:56;94519.13;;;11.13;60.59
11329;BME280;5719;42.714;23.732;2024-03-08T11:59:27;94518.53;;;11.10;60.94
11329;BME280;5719;42.714;23.732;2024-03-08T12:02:01;94525.75;;;10.94;61.77
11329;BME280;5719;42.714;23.732;2024-03-08T12:04:29;94522.97;;;11.08;62.12
11329;BME280;5719;42.714;23.732;2024-03-08T12:06:59;94527.69;;;11.03;60.62
11329;BME280;5719;42.714;23.732;2024-03-08T12:09:26;94527.03;;;10.88;61.29
11329;BME280;5719;42.714;23.732;2024-03-08T12:11:53;94534.34;;;10.94;60.91
11329;BME280;5719;42.714;23.732;2024-03-08T12:14:20;94495.38;;;10.61;61.71
11329;BME280;5719;42.714;23.732;2024-03-08T12:16:50;94533.50;;;10.94;61.65
11329;BME280;5719;42.714;23.732;2024-03-08T12:19:17;94531.34;;;11.11;59.46
11329;BME280;5719;42.714;23.732;2024-03-08T12:21:44;94521.72;;;10.90;61.65
11329;BME280;5719;42.714;23.732;2024-03-08T12:24:15;94527.19;;;10.98;60.96
11329;BME280;5719;42.714;23.732;2024-03-08T12:26:45;94529.78;;;10.98;60.41
11329;BME280;5719;42.714;23.732;2024-03-08T12:29:18;94531.44;;;10.99;60.74
11329;BME280;5719;42.714;23.732;2024-03-08T12:31:51;94485.47;;;10.78;60.53
11329;BME280;5719;42.714;23.732;2024-03-08T12:34:18;94498.75;;;10.74;58.88
11329;BME280;5719;42.714;23.732;2024-03-08T12:36:46;94508.41;;;10.36;60.65
11329;BME280;5719;42.714;23.732;2024-03-08T12:39:17;94526.84;;;10.06;63.38
11329;BME280;5719;42.714;23.732;2024-03-08T12:41:48;94526.44;;;10.12;63.88
11329;BME280;5719;42.714;23.732;2024-03-08T12:44:15;94515.00;;;10.16;64.86
11329;BME280;5719;42.714;23.732;2024-03-08T12:46:44;94508.72;;;10.31;66.05
11329;BME280;5719;42.714;23.732;2024-03-08T12:49:12;94510.34;;;10.68;62.37
11329;BME280;5719;42.714;23.732;2024-03-08T12:51:43;94504.72;;;10.63;61.94
11329;BME280;5719;42.714;23.732;2024-03-08T12:54:10;94514.06;;;10.77;62.63
11329;BME280;5719;42.714;23.732;2024-03-08T12:56:37;94505.84;;;11.07;60.69
11329;BME280;5719;42.714;23.732;2024-03-08T12:59:06;94509.84;;;10.87;60.45
11329;BME280;5719;42.714;23.732;2024-03-08T13:01:34;94491.03;;;10.61;61.53
11329;BME280;5719;42.714;23.732;2024-03-08T13:04:03;94483.47;;;10.47;61.08
11329;BME280;5719;42.714;23.732;2024-03-08T13:06:33;94493.31;;;10.66;62.31